Ship Status Report: callsign GCOZ

sailwx.info

Track history (hours):
 
Tides and Currents Weather Stations Pressure Air Temp Water Temp Dewpoint Dewpoint Depression Visibility Wind Speed Wind Dir Waves Ship Positions

Callsign GCOZ (name unknown)

Last reported at 2017-Jun-30 19:27 UTC. Time now 2017-Jul-20 12:25 UTC.
Position N 56°03' W 003°06'.
Warning: this ship's position is 19 days out of date.

Date/timePositionNaut miles runAvg speedWind from/ knotsBaromVisibWave heightAir tempDewpointWater temp
2017-Jun-30 19:27N 56°03' W 003°06'612.1
2017-Jun-30 19:00N 56°02' W 003°15'  
2017-Jun-28 14:40N 56°01' W 003°20'1 6.9
2017-Jun-28 14:30N 56°01' W 003°18'8 8.5
2017-Jun-28 13:31N 56°03' W 003°03'4 7.9
2017-Jun-28 13:00N 56°07' W 002°59'0 0.7
2017-Jun-28 12:30N 56°07' W 002°59'3 5.1
2017-Jun-28 12:01N 56°06' W 002°54'3 6.7
2017-Jun-28 11:30N 56°05' W 003°00'3 6.8
2017-Jun-28 11:00N 56°05' W 003°06'2 5.0
2017-Jun-28 10:31N 56°06' W 003°03'3 6.1
2017-Jun-28 10:01N 56°05' W 003°07'5 9.1
2017-Jun-28 09:31N 56°08' W 003°01'2 4.0
2017-Jun-28 09:00N 56°06' W 003°01'1 1.3
2017-Jun-28 08:30N 56°05' W 003°02'4 7.4
2017-Jun-28 08:00N 56°07' W 002°56'1 1.2
2017-Jun-28 07:30N 56°07' W 002°57'3 6.3
2017-Jun-28 07:00N 56°05' W 003°02'2 3.6
2017-Jun-28 06:30N 56°06' W 002°60'3 5.4
2017-Jun-28 06:00N 56°08' W 002°55'2 4.3
2017-Jun-28 05:30N 56°08' W 002°51'2 4.5
2017-Jun-28 05:00N 56°08' W 002°55'2 4.7
2017-Jun-28 04:30N 56°06' W 002°58'2 4.2
2017-Jun-28 04:00N 56°06' W 003°02'1 2.9
2017-Jun-28 03:30N 56°06' W 002°59'2 4.7
2017-Jun-28 03:00N 56°07' W 002°55'2 3.4
2017-Jun-28 02:30N 56°08' W 002°54'0 0.8
2017-Jun-28 02:00N 56°08' W 002°54'1 1.7
2017-Jun-28 01:30N 56°07' W 002°55'2 3.8
2017-Jun-28 01:01N 56°06' W 002°57'3 6.0
2017-Jun-28 00:30N 56°08' W 002°54'1 1.7
2017-Jun-28 00:00N 56°08' W 002°55'1 2.5
2017-Jun-27 23:30N 56°07' W 002°56'2 4.8
2017-Jun-27 23:00N 56°08' W 002°53'1 1.9
2017-Jun-27 22:30N 56°08' W 002°55'0 0.4
2017-Jun-27 22:00N 56°08' W 002°54'2 4.1
2017-Jun-27 21:30N 56°09' W 002°51'2 4.6
2017-Jun-27 21:00N 56°07' W 002°54'6 3.8
2017-Jun-27 19:31N 56°05' W 003°04'2 1.6
2017-Jun-27 18:00N 56°07' W 003°01'24 6.9
2017-Jun-27 14:30N 56°08' W 002°17'7 7.0
2017-Jun-27 13:30N 56°10' W 002°05'611.8
2017-Jun-27 13:00N 56°09' W 002°15'613.0
2017-Jun-27 12:30N 56°05' W 002°25'3 6.5
2017-Jun-27 12:00N 56°08' W 002°27'1 1.6
2017-Jun-27 11:31N 56°08' W 002°26'4 7.8
2017-Jun-27 11:01N 56°11' W 002°23'3 6.3
2017-Jun-27 10:30N 56°14' W 002°20'3 6.6
2017-Jun-27 10:00N 56°14' W 002°26'2 4.1
2017-Jun-27 09:30N 56°12' W 002°27'3 6.6
2017-Jun-27 09:01N 56°09' W 002°24'4 8.3
2017-Jun-27 08:30N 56°09' W 002°16'1 2.0
2017-Jun-27 08:00N 56°09' W 002°17'353703.3
2017-Jun-27 07:30N 50°22' W 004°11'354710.7
2017-Jun-27 07:00N 56°10' W 002°19'4 7.5
2017-Jun-27 06:30N 56°13' W 002°22'5 9.2
2017-Jun-27 06:00N 56°09' W 002°18'510.2
2017-Jun-27 05:30N 56°05' W 002°12'4 7.9
2017-Jun-27 05:00N 56°08' W 002°07'4 9.0
2017-Jun-27 04:30N 56°12' W 002°09'2 3.2
2017-Jun-27 04:01N 56°13' W 002°10'4 8.1
2017-Jun-27 03:30N 56°10' W 002°06'3 7.1
2017-Jun-27 03:00N 56°07' W 002°04'4 8.4
2017-Jun-27 02:30N 56°08' W 002°11'712.3
2017-Jun-27 01:58N 56°09' W 002°23'612.2
2017-Jun-27 01:30N 56°09' W 002°33'612.2
2017-Jun-27 01:00N 56°08' W 002°44'612.7
2017-Jun-27 00:31N 56°08' W 002°55'5 9.9
2017-Jun-27 00:01N 56°05' W 003°03'3 5.6
2017-Jun-26 23:31N 56°06' W 002°58'  
Track history (hours):
 
Tides and Currents Weather Stations Pressure Air Temp Water Temp Dewpoint Dewpoint Depression Visibility Wind Speed Wind Dir Waves Ship Positions

Callsign GCOZ (name unknown)

Last reported at 2017-Jun-30 19:27 UTC. Time now 2017-Jul-20 12:25 UTC.
Position N 56°03' W 003°06'.
Warning: this ship's position is 19 days out of date.

Date/timePositionNaut miles runAvg speedWind from/ knotsBaromVisibWave heightAir tempDewpointWater temp
2017-Jun-30 19:27N 56°03' W 003°06'612.1
2017-Jun-30 19:00N 56°02' W 003°15'  
2017-Jun-28 14:40N 56°01' W 003°20'1 6.9
2017-Jun-28 14:30N 56°01' W 003°18'8 8.5
2017-Jun-28 13:31N 56°03' W 003°03'4 7.9
2017-Jun-28 13:00N 56°07' W 002°59'0 0.7
2017-Jun-28 12:30N 56°07' W 002°59'3 5.1
2017-Jun-28 12:01N 56°06' W 002°54'3 6.7
2017-Jun-28 11:30N 56°05' W 003°00'3 6.8
2017-Jun-28 11:00N 56°05' W 003°06'2 5.0
2017-Jun-28 10:31N 56°06' W 003°03'3 6.1
2017-Jun-28 10:01N 56°05' W 003°07'5 9.1
2017-Jun-28 09:31N 56°08' W 003°01'2 4.0
2017-Jun-28 09:00N 56°06' W 003°01'1 1.3
2017-Jun-28 08:30N 56°05' W 003°02'4 7.4
2017-Jun-28 08:00N 56°07' W 002°56'1 1.2
2017-Jun-28 07:30N 56°07' W 002°57'3 6.3
2017-Jun-28 07:00N 56°05' W 003°02'2 3.6
2017-Jun-28 06:30N 56°06' W 002°60'3 5.4
2017-Jun-28 06:00N 56°08' W 002°55'2 4.3
2017-Jun-28 05:30N 56°08' W 002°51'2 4.5
2017-Jun-28 05:00N 56°08' W 002°55'2 4.7
2017-Jun-28 04:30N 56°06' W 002°58'2 4.2
2017-Jun-28 04:00N 56°06' W 003°02'1 2.9
2017-Jun-28 03:30N 56°06' W 002°59'2 4.7
2017-Jun-28 03:00N 56°07' W 002°55'2 3.4
2017-Jun-28 02:30N 56°08' W 002°54'0 0.8
2017-Jun-28 02:00N 56°08' W 002°54'1 1.7
2017-Jun-28 01:30N 56°07' W 002°55'2 3.8
2017-Jun-28 01:01N 56°06' W 002°57'3 6.0
2017-Jun-28 00:30N 56°08' W 002°54'1 1.7
2017-Jun-28 00:00N 56°08' W 002°55'1 2.5
2017-Jun-27 23:30N 56°07' W 002°56'2 4.8
2017-Jun-27 23:00N 56°08' W 002°53'1 1.9
2017-Jun-27 22:30N 56°08' W 002°55'0 0.4
2017-Jun-27 22:00N 56°08' W 002°54'2 4.1
2017-Jun-27 21:30N 56°09' W 002°51'2 4.6
2017-Jun-27 21:00N 56°07' W 002°54'6 3.8
2017-Jun-27 19:31N 56°05' W 003°04'2 1.6
2017-Jun-27 18:00N 56°07' W 003°01'24 6.9
2017-Jun-27 14:30N 56°08' W 002°17'7 7.0
2017-Jun-27 13:30N 56°10' W 002°05'611.8
2017-Jun-27 13:00N 56°09' W 002°15'613.0
2017-Jun-27 12:30N 56°05' W 002°25'3 6.5
2017-Jun-27 12:00N 56°08' W 002°27'1 1.6
2017-Jun-27 11:31N 56°08' W 002°26'4 7.8
2017-Jun-27 11:01N 56°11' W 002°23'3 6.3
2017-Jun-27 10:30N 56°14' W 002°20'3 6.6
2017-Jun-27 10:00N 56°14' W 002°26'2 4.1
2017-Jun-27 09:30N 56°12' W 002°27'3 6.6
2017-Jun-27 09:01N 56°09' W 002°24'4 8.3
2017-Jun-27 08:30N 56°09' W 002°16'1 2.0
2017-Jun-27 08:00N 56°09' W 002°17'353703.3
2017-Jun-27 07:30N 50°22' W 004°11'354710.7
2017-Jun-27 07:00N 56°10' W 002°19'4 7.5
2017-Jun-27 06:30N 56°13' W 002°22'5 9.2
2017-Jun-27 06:00N 56°09' W 002°18'510.2
2017-Jun-27 05:30N 56°05' W 002°12'4 7.9
2017-Jun-27 05:00N 56°08' W 002°07'4 9.0
2017-Jun-27 04:30N 56°12' W 002°09'2 3.2
2017-Jun-27 04:01N 56°13' W 002°10'4 8.1
2017-Jun-27 03:30N 56°10' W 002°06'3 7.1
2017-Jun-27 03:00N 56°07' W 002°04'4 8.4
2017-Jun-27 02:30N 56°08' W 002°11'712.3
2017-Jun-27 01:58N 56°09' W 002°23'612.2
2017-Jun-27 01:30N 56°09' W 002°33'612.2
2017-Jun-27 01:00N 56°08' W 002°44'612.7
2017-Jun-27 00:31N 56°08' W 002°55'5 9.9
2017-Jun-27 00:01N 56°05' W 003°03'3 5.6
2017-Jun-26 23:31N 56°06' W 002°58'  

Dump ship's entire track history